Time;durP1;ratioP1;P1;durP2;ratioP2;P2;SDS_P1;SDS_P2;PMS_P1;PMS_P2;Temp;Humidity;BMP_temperature;BMP_pressure;BME280_temperature;BME280_humidity;BME280_pressure;Samples;Min_cycle;Max_cycle;Signal;HPM_P1;HPM_P2
2021/12/15 00:00:20;;;;;;;26.57;21.43;;;4.00;1.00;;;;;;5093940;28;20275;-80
2021/12/15 00:02:50;;;;;;;27.77;20.70;;;3.90;1.00;;;;;;5093596;28;20216;-80
2021/12/15 00:05:21;;;;;;;29.80;22.20;;;4.00;1.00;;;;;;5093924;28;20201;-80
2021/12/15 00:07:49;;;;;;;28.30;20.87;;;4.00;1.00;;;;;;5093649;28;20748;-80
2021/12/15 00:10:16;;;;;;;28.60;23.60;;;3.90;1.00;;;;;;5094077;28;20205;-80
2021/12/15 00:12:43;;;;;;;33.47;21.90;;;3.90;1.00;;;;;;5093630;28;20202;-80
2021/12/15 00:15:11;;;;;;;33.50;23.73;;;3.80;1.00;;;;;;5093428;28;20255;-79
2021/12/15 00:17:39;;;;;;;32.37;22.60;;;3.70;1.00;;;;;;5093811;28;20198;-80
2021/12/15 00:20:10;;;;;;;26.70;21.40;;;3.70;1.00;;;;;;5094037;28;20229;-80
2021/12/15 00:22:38;;;;;;;29.40;22.20;;;3.70;1.50;;;;;;5093561;28;20197;-80
2021/12/15 00:25:08;;;;;;;33.50;23.03;;;3.70;21.80;;;;;;5093882;28;20213;-81
2021/12/15 00:27:35;;;;;;;29.37;22.07;;;3.70;49.60;;;;;;5093490;28;20722;-75
2021/12/15 00:30:02;;;;;;;31.97;22.90;;;3.70;81.00;;;;;;5094115;28;20661;-83
2021/12/15 00:32:29;;;;;;;27.40;20.17;;;3.70;79.60;;;;;;5094082;28;20205;-77
2021/12/15 00:34:58;;;;;;;26.57;20.60;;;3.70;87.00;;;;;;5092351;28;20206;-77
2021/12/15 00:37:25;;;;;;;30.50;21.10;;;3.80;99.90;;;;;;5093675;28;20197;-78
2021/12/15 00:39:52;;;;;;;25.67;19.13;;;3.80;69.80;;;;;;5092892;28;20206;-77
2021/12/15 00:42:19;;;;;;;25.93;20.83;;;3.80;1.00;;;;;;5092981;28;20217;-78
2021/12/15 00:44:46;;;;;;;27.47;20.10;;;3.80;1.00;;;;;;5092956;28;20255;-78
2021/12/15 00:47:13;;;;;;;28.93;20.07;;;3.80;1.00;;;;;;5093460;28;20201;-78
2021/12/15 00:49:41;;;;;;;26.90;20.47;;;3.80;1.00;;;;;;5092856;28;20664;-79
2021/12/15 00:52:09;;;;;;;26.53;19.40;;;3.60;1.00;;;;;;5092967;28;20668;-78
2021/12/15 00:54:38;;;;;;;25.17;18.43;;;3.60;1.00;;;;;;5092579;28;20251;-77
2021/12/15 00:57:06;;;;;;;22.53;18.50;;;3.70;1.00;;;;;;5093187;28;20669;-79
2021/12/15 00:59:33;;;;;;;23.03;18.43;;;3.70;1.00;;;;;;5093063;28;20627;-72
2021/12/15 01:02:01;;;;;;;22.77;18.23;;;3.60;1.00;;;;;;5093351;28;20233;-79
2021/12/15 01:04:30;;;;;;;26.70;19.87;;;3.50;1.00;;;;;;5093356;28;20201;-79
2021/12/15 01:07:00;;;;;;;25.77;19.50;;;3.50;1.00;;;;;;5092623;28;20197;-79
2021/12/15 01:09:34;;;;;;;24.60;17.60;;;3.40;1.00;;;;;;5092861;28;20206;-79
2021/12/15 01:12:18;;;;;;;21.60;17.67;;;3.40;1.00;;;;;;5093214;28;20673;-76
2021/12/15 01:20:24;;;;;;;28.60;18.00;;;3.40;1.00;;;;;;5092546;28;20275;-77
2021/12/15 01:22:55;;;;;;;25.03;16.07;;;3.30;1.00;;;;;;5092316;28;20205;-78
2021/12/15 01:25:26;;;;;;;21.53;16.30;;;3.40;1.00;;;;;;5092591;28;20209;-77
2021/12/15 01:27:54;;;;;;;23.23;16.97;;;3.40;1.00;;;;;;5091826;28;20205;-76
2021/12/15 01:30:24;;;;;;;27.73;18.47;;;3.40;1.00;;;;;;5092489;28;20202;-79
2021/12/15 01:32:54;;;;;;;22.20;17.57;;;3.50;1.00;;;;;;5092127;28;20208;-77
2021/12/15 01:35:21;;;;;;;23.43;16.13;;;3.50;1.00;;;;;;5092520;28;20201;-78
2021/12/15 01:37:49;;;;;;;20.23;16.53;;;3.50;1.00;;;;;;5091891;28;20255;-78
2021/12/15 01:40:25;;;;;;;26.80;16.60;;;3.50;1.00;;;;;;5091991;28;20225;-77
2021/12/15 01:42:54;;;;;;;21.13;15.50;;;3.50;1.00;;;;;;5091638;28;20205;-77
2021/12/15 01:48:08;;;;;;;19.13;15.43;;;3.50;1.00;;;;;;5092320;28;20688;-77
2021/12/15 01:50:36;;;;;;;21.50;16.17;;;3.50;1.00;;;;;;5091667;28;20626;-74
2021/12/15 01:53:05;;;;;;;20.50;14.07;;;3.40;1.00;;;;;;5092065;28;20209;-76
2021/12/15 01:55:33;;;;;;;21.20;15.13;;;3.40;1.00;;;;;;5092320;28;20202;-77
2021/12/15 01:58:01;;;;;;;26.00;15.67;;;3.40;1.00;;;;;;5092619;28;20216;-77
2021/12/15 02:00:31;;;;;;;20.63;15.00;;;3.40;1.00;;;;;;5092058;28;20229;-78
2021/12/15 02:02:58;;;;;;;23.47;15.80;;;3.40;1.00;;;;;;5091717;28;20202;-77
2021/12/15 02:05:27;;;;;;;20.57;13.80;;;3.40;1.00;;;;;;5091781;28;20201;-77
2021/12/15 02:07:54;;;;;;;17.90;14.67;;;3.30;1.00;;;;;;5091343;28;20742;-78
2021/12/15 02:10:26;;;;;;;18.70;14.67;;;3.30;1.00;;;;;;5091752;28;20209;-77
2021/12/15 02:12:53;;;;;;;17.53;13.23;;;3.20;1.00;;;;;;5091479;28;20271;-78
2021/12/15 02:15:23;;;;;;;19.23;13.90;;;3.20;1.00;;;;;;5091862;28;20226;-82
2021/12/15 02:17:51;;;;;;;18.40;14.27;;;3.30;1.00;;;;;;5091695;28;20201;-79
2021/12/15 02:20:21;;;;;;;18.40;14.87;;;3.30;1.00;;;;;;5091603;28;20669;-80
2021/12/15 02:22:49;;;;;;;20.10;13.67;;;3.30;1.00;;;;;;5091711;28;20209;-78
2021/12/15 02:25:17;;;;;;;18.33;13.40;;;3.30;1.00;;;;;;5091440;28;20251;-77
2021/12/15 02:27:44;;;;;;;17.77;13.37;;;3.30;1.00;;;;;;5090955;28;20297;-82
2021/12/15 02:30:25;;;;;;;19.43;14.33;;;3.30;1.00;;;;;;5091425;28;20204;-80
2021/12/15 02:33:06;;;;;;;17.73;12.93;;;3.30;1.00;;;;;;5090989;28;20205;-77
2021/12/15 02:38:26;;;;;;;24.70;16.07;;;3.30;1.00;;;;;;5091264;28;20200;-77
2021/12/15 02:40:53;;;;;;;17.60;13.10;;;3.20;1.00;;;;;;5076074;28;20241;-77
2021/12/15 02:43:20;;;;;;;22.47;16.07;;;3.20;1.00;;;;;;5070804;28;20603;-78
2021/12/15 02:45:47;;;;;;;17.37;13.43;;;3.20;1.00;;;;;;5070803;28;20259;-80
2021/12/15 02:48:14;;;;;;;18.67;14.17;;;3.30;1.00;;;;;;5070985;28;20209;-81
2021/12/15 02:50:41;;;;;;;23.47;15.87;;;3.20;1.00;;;;;;5070593;28;20614;-81
2021/12/15 02:53:08;;;;;;;21.03;14.30;;;3.00;1.00;;;;;;5070896;28;20572;-81
2021/12/15 02:55:37;;;;;;;24.70;16.63;;;3.00;1.00;;;;;;5070412;28;20206;-74
2021/12/15 02:58:04;;;;;;;20.10;15.10;;;3.10;1.00;;;;;;5070519;28;20208;-80
2021/12/15 03:00:45;;;;;;;20.03;13.30;;;3.00;1.00;;;;;;5071518;28;20209;-83
2021/12/15 03:06:07;;;;;;;21.00;15.13;;;2.80;1.00;;;;;;5070947;28;20201;-81
2021/12/15 03:08:52;;;;;;;18.17;12.87;;;2.80;1.00;;;;;;5070640;28;20216;-80
2021/12/15 03:16:52;;;;;;;19.20;13.63;;;2.90;1.00;;;;;;5070244;28;20271;-80
2021/12/15 03:19:19;;;;;;;20.07;14.53;;;2.90;1.00;;;;;;5070768;28;20255;-79
2021/12/15 03:21:46;;;;;;;16.67;13.90;;;2.90;1.00;;;;;;5070287;28;20275;-80
2021/12/15 03:24:18;;;;;;;21.00;14.87;;;3.00;1.00;;;;;;5070366;28;20259;-80
2021/12/15 03:26:56;;;;;;;24.33;16.47;;;2.90;1.00;;;;;;5070529;28;20202;-80
2021/12/15 03:35:05;;;;;;;23.00;17.27;;;2.90;1.00;;;;;;5070302;28;20213;-80
2021/12/15 03:37:35;;;;;;;17.40;14.37;;;2.90;1.00;;;;;;5070408;28;20293;-79
2021/12/15 03:40:09;;;;;;;22.33;15.57;;;2.90;1.00;;;;;;5070685;28;20669;-79
2021/12/15 03:42:41;;;;;;;20.93;15.47;;;2.90;1.00;;;;;;5069899;28;20241;-79
2021/12/15 03:45:11;;;;;;;19.40;14.33;;;2.90;1.00;;;;;;5070474;28;20692;-80
2021/12/15 03:47:42;;;;;;;20.23;13.50;;;2.90;1.00;;;;;;5070175;28;20252;-78
2021/12/15 03:50:17;;;;;;;16.23;13.53;;;2.90;1.00;;;;;;5070563;28;20203;-77
2021/12/15 03:52:48;;;;;;;17.10;12.17;;;2.90;1.00;;;;;;5069720;28;20201;-79
2021/12/15 03:55:15;;;;;;;19.43;13.63;;;2.90;1.00;;;;;;5070327;28;20210;-79
2021/12/15 03:57:44;;;;;;;17.60;13.73;;;2.90;1.00;;;;;;5070103;28;20620;-80
2021/12/15 04:00:14;;;;;;;15.23;11.77;;;2.90;1.00;;;;;;5070262;28;20255;-79
2021/12/15 04:02:42;;;;;;;21.53;15.13;;;2.80;1.00;;;;;;5069945;28;20234;-79
2021/12/15 04:05:11;;;;;;;18.63;12.97;;;2.80;1.00;;;;;;5070507;28;20275;-83
2021/12/15 04:07:38;;;;;;;18.67;12.33;;;2.50;1.00;;;;;;5070242;28;20206;-81
2021/12/15 04:10:06;;;;;;;19.93;13.47;;;2.40;1.00;;;;;;5073910;28;20202;-83
2021/12/15 04:12:33;;;;;;;15.07;13.00;;;2.40;1.00;;;;;;5074295;28;20198;-75
2021/12/15 04:15:20;;;;;;;18.57;14.53;;;2.30;1.00;;;;;;5074755;28;20206;-84
2021/12/15 04:17:48;;;;;;;20.60;13.90;;;2.30;1.00;;;;;;5074117;28;20213;-87
2021/12/15 04:20:18;;;;;;;19.47;13.37;;;2.40;1.00;;;;;;5074284;28;20203;-84
2021/12/15 04:22:45;;;;;;;15.73;11.83;;;2.40;1.00;;;;;;5073714;28;20307;-85
2021/12/15 04:25:16;;;;;;;21.03;13.80;;;2.30;1.00;;;;;;5074127;28;20199;-84
2021/12/15 04:27:53;;;;;;;16.93;13.63;;;2.40;1.00;;;;;;5073834;28;20206;-84
2021/12/15 04:30:22;;;;;;;18.40;14.10;;;2.30;1.00;;;;;;5074308;28;20326;-84
2021/12/15 04:32:51;;;;;;;18.80;12.90;;;2.30;1.00;;;;;;5073749;28;20670;-84
2021/12/15 04:35:18;;;;;;;18.87;14.43;;;2.30;1.00;;;;;;5073641;28;20746;-80
2021/12/15 04:37:46;;;;;;;16.67;13.00;;;2.20;1.00;;;;;;5072938;28;20678;-81
2021/12/15 04:40:14;;;;;;;15.90;13.00;;;2.20;1.00;;;;;;5073454;28;20202;-83
2021/12/15 04:42:43;;;;;;;17.23;13.70;;;2.20;1.00;;;;;;5073307;28;20234;-82
2021/12/15 04:45:13;;;;;;;18.40;13.80;;;2.20;1.00;;;;;;5073775;28;20205;-82
2021/12/15 04:47:42;;;;;;;19.97;14.70;;;2.30;1.00;;;;;;5073383;28;20206;-78
2021/12/15 04:50:11;;;;;;;17.53;12.23;;;2.40;1.00;;;;;;5072992;28;20351;-83
2021/12/15 04:52:39;;;;;;;15.87;12.67;;;2.50;1.00;;;;;;5072969;28;20575;-83
2021/12/15 04:55:08;;;;;;;21.17;13.83;;;2.50;1.00;;;;;;5073503;28;20213;-79
2021/12/15 04:57:36;;;;;;;20.33;13.83;;;2.60;1.00;;;;;;5072934;28;20208;-78
2021/12/15 05:00:05;;;;;;;16.93;12.70;;;2.50;1.00;;;;;;5073304;28;20202;-81
2021/12/15 05:02:33;;;;;;;18.83;13.47;;;2.50;1.00;;;;;;5073095;28;20777;-77
2021/12/15 05:05:01;;;;;;;17.53;13.47;;;2.60;1.00;;;;;;5072965;28;20206;-78
2021/12/15 05:07:28;;;;;;;19.00;12.77;;;2.60;1.00;;;;;;5073339;28;20268;-77
2021/12/15 05:09:55;;;;;;;16.00;13.07;;;2.50;1.00;;;;;;5072562;28;20206;-78
2021/12/15 05:12:23;;;;;;;16.87;12.73;;;2.50;1.00;;;;;;5072834;28;20259;-77
2021/12/15 05:14:51;;;;;;;18.23;12.93;;;2.40;1.00;;;;;;5072172;28;20202;-78
2021/12/15 05:17:19;;;;;;;14.80;11.73;;;2.40;1.00;;;;;;5072589;28;20206;-80
2021/12/15 05:19:47;;;;;;;15.70;13.17;;;2.50;1.00;;;;;;5072049;28;20206;-80
2021/12/15 05:22:16;;;;;;;18.10;12.77;;;2.50;1.00;;;;;;5072169;28;20287;-78
2021/12/15 05:24:44;;;;;;;18.37;13.37;;;2.60;1.00;;;;;;5072171;28;20210;-78
2021/12/15 05:27:14;;;;;;;16.13;13.90;;;2.50;1.00;;;;;;5072223;28;20243;-77
2021/12/15 05:29:43;;;;;;;19.50;13.10;;;2.40;1.00;;;;;;5072027;28;20257;-77
2021/12/15 05:32:11;;;;;;;21.53;13.43;;;2.40;1.00;;;;;;5072490;28;20206;-80
2021/12/15 05:34:39;;;;;;;17.70;14.27;;;2.50;1.00;;;;;;5071699;28;20624;-80
2021/12/15 05:37:07;;;;;;;14.40;12.80;;;2.50;1.00;;;;;;5072460;28;20199;-80
2021/12/15 05:39:36;;;;;;;18.97;12.93;;;2.60;1.00;;;;;;5072198;28;20642;-79
2021/12/15 05:42:04;;;;;;;17.87;13.53;;;2.50;1.00;;;;;;5071899;28;20279;-76
2021/12/15 05:44:31;;;;;;;22.43;14.87;;;2.50;1.00;;;;;;5072279;28;20685;-80
2021/12/15 05:47:00;;;;;;;20.93;14.23;;;2.50;1.00;;;;;;5072075;28;20209;-79
2021/12/15 05:49:28;;;;;;;21.00;13.00;;;2.50;1.00;;;;;;5071902;28;20640;-80
2021/12/15 05:51:56;;;;;;;27.57;14.03;;;2.40;1.00;;;;;;5071447;28;20206;-81
2021/12/15 05:54:24;;;;;;;18.90;12.90;;;2.40;1.00;;;;;;5071915;28;20214;-81
2021/12/15 05:56:53;;;;;;;22.17;15.13;;;2.40;1.00;;;;;;5071430;28;20267;-80
2021/12/15 05:59:20;;;;;;;17.63;14.33;;;2.50;1.00;;;;;;5071860;28;20202;-80
2021/12/15 06:01:47;;;;;;;13.20;10.60;;;2.50;1.00;;;;;;5071483;28;20229;-73
2021/12/15 06:04:15;;;;;;;18.00;11.60;;;2.50;1.00;;;;;;5071418;28;20260;-79
2021/12/15 06:06:42;;;;;;;14.63;11.17;;;2.50;1.00;;;;;;5071375;28;20625;-78
2021/12/15 06:09:12;;;;;;;17.67;11.43;;;2.40;1.00;;;;;;5071357;28;20247;-76
2021/12/15 06:11:47;;;;;;;16.73;11.80;;;2.50;1.00;;;;;;5071071;28;20213;-78
2021/12/15 06:14:22;;;;;;;19.20;12.73;;;2.40;1.00;;;;;;5071391;28;20262;-78
2021/12/15 06:16:50;;;;;;;19.50;13.23;;;2.40;1.00;;;;;;5070825;28;20637;-77
2021/12/15 06:19:17;;;;;;;15.43;11.23;;;2.40;1.00;;;;;;5071219;28;20612;-79
2021/12/15 06:21:44;;;;;;;16.63;12.87;;;2.40;1.00;;;;;;5070788;28;20689;-79
2021/12/15 06:24:11;;;;;;;17.30;11.83;;;2.30;1.00;;;;;;5071201;28;20654;-77
2021/12/15 06:26:38;;;;;;;22.30;13.53;;;2.20;1.00;;;;;;5071060;28;20251;-78
2021/12/15 06:29:05;;;;;;;16.80;12.50;;;2.30;1.00;;;;;;5071195;28;20235;-75
2021/12/15 06:31:34;;;;;;;17.37;11.20;;;2.30;1.00;;;;;;5072864;28;20255;-77
2021/12/15 06:34:01;;;;;;;16.73;12.03;;;2.30;1.00;;;;;;5075992;28;20743;-78
2021/12/15 06:36:30;;;;;;;18.03;12.27;;;2.20;1.00;;;;;;5088794;28;20206;-77
2021/12/15 06:38:57;;;;;;;17.83;11.67;;;2.30;1.00;;;;;;5091278;28;20215;-78
2021/12/15 06:41:25;;;;;;;20.33;12.80;;;2.10;1.00;;;;;;5091196;28;20268;-77
2021/12/15 06:43:54;;;;;;;16.20;11.70;;;2.20;1.00;;;;;;5090908;28;20702;-78
2021/12/15 06:58:11;;;;;;;19.57;11.57;;;2.10;1.00;;;;;;5091183;28;20208;-78
2021/12/15 07:00:25;;;;;;;16.80;9.47;;;2.20;1.00;;;;;;5075260;28;20220;-76
2021/12/15 07:02:53;;;;;;;15.27;10.20;;;2.20;1.00;;;;;;5074439;28;20785;-79
2021/12/15 07:05:24;;;;;;;16.60;11.20;;;2.20;1.00;;;;;;5070819;28;20209;-76
2021/12/15 07:07:52;;;;;;;45.03;17.47;;;2.20;1.00;;;;;;5070405;28;20221;-76
2021/12/15 07:10:24;;;;;;;26.20;19.17;;;2.30;1.00;;;;;;5075122;28;20213;-74
2021/12/15 07:12:52;;;;;;;17.40;13.03;;;2.30;1.00;;;;;;5081181;28;20206;-74
2021/12/15 07:15:19;;;;;;;18.50;11.90;;;2.30;1.00;;;;;;5070540;28;20414;-75
2021/12/15 07:17:50;;;;;;;16.27;11.43;;;2.30;1.00;;;;;;5084013;28;20741;-75
2021/12/15 07:23:18;;;;;;;20.33;14.70;;;2.20;1.00;;;;;;5028495;28;20230;-74
2021/12/15 07:25:47;;;;;;;19.73;12.30;;;2.30;1.00;;;;;;5075778;28;20676;-72
2021/12/15 07:28:16;;;;;;;19.73;12.77;;;2.30;1.00;;;;;;5084179;28;20263;-74
2021/12/15 07:30:44;;;;;;;15.73;11.07;;;2.30;1.00;;;;;;5070893;28;20258;-75
2021/12/15 07:33:12;;;;;;;19.23;11.70;;;2.30;1.00;;;;;;5079081;28;20210;-72
2021/12/15 07:35:40;;;;;;;19.63;13.40;;;2.40;1.00;;;;;;5072117;28;20670;-74
2021/12/15 07:38:08;;;;;;;13.63;10.37;;;2.40;1.00;;;;;;5081269;28;20674;-74
2021/12/15 07:40:40;;;;;;;20.20;11.10;;;2.50;1.00;;;;;;5069936;28;20639;-68
2021/12/15 07:43:11;;;;;;;19.97;13.00;;;2.60;1.00;;;;;;5083388;28;20229;-73
2021/12/15 07:45:42;;;;;;;22.33;13.17;;;2.60;1.00;;;;;;5092018;28;20201;-74
2021/12/15 07:48:12;;;;;;;21.20;12.50;;;2.60;1.00;;;;;;5093795;28;20271;-72
2021/12/15 07:50:41;;;;;;;23.83;11.67;;;2.70;1.00;;;;;;5082192;28;20206;-72
2021/12/15 07:53:08;;;;;;;24.37;12.37;;;2.70;1.00;;;;;;5093834;28;20205;-72
2021/12/15 07:55:38;;;;;;;20.97;12.47;;;2.70;1.00;;;;;;5089654;28;20215;-68
2021/12/15 07:58:06;;;;;;;20.83;12.63;;;2.80;1.00;;;;;;5081314;28;20719;-72
2021/12/15 08:00:34;;;;;;;16.43;13.27;;;2.70;1.00;;;;;;5084042;28;20263;-69
2021/12/15 08:03:01;;;;;;;22.70;13.47;;;2.80;1.00;;;;;;5094044;28;20229;-72
2021/12/15 08:05:29;;;;;;;18.40;13.60;;;2.90;1.00;;;;;;5094247;28;20201;-73
2021/12/15 08:07:56;;;;;;;18.27;11.27;;;3.10;1.00;;;;;;5093357;28;20643;-67
2021/12/15 08:10:23;;;;;;;16.97;11.97;;;3.20;1.00;;;;;;5085062;28;20564;-70
2021/12/15 08:12:52;;;;;;;17.43;11.40;;;3.30;1.00;;;;;;5080898;28;20206;-72
2021/12/15 08:15:20;;;;;;;16.87;12.03;;;3.40;1.00;;;;;;5080518;28;20260;-74
2021/12/15 08:17:51;;;;;;;15.47;11.83;;;3.50;1.00;;;;;;5086399;28;20202;-72
2021/12/15 08:20:20;;;;;;;15.20;10.70;;;3.60;1.00;;;;;;5090626;28;20657;-69
2021/12/15 08:22:48;;;;;;;11.57;10.00;;;3.70;1.00;;;;;;5092711;28;20221;-72
2021/12/15 08:25:16;;;;;;;17.13;10.90;;;3.70;1.00;;;;;;5082502;28;20260;-71
2021/12/15 08:27:44;;;;;;;15.13;10.43;;;4.30;1.00;;;;;;5084961;28;20210;-72
2021/12/15 08:30:19;;;;;;;15.20;10.60;;;4.70;1.00;;;;;;5079603;28;20232;-72
2021/12/15 08:32:47;;;;;;;15.90;10.17;;;5.30;1.00;;;;;;5078992;28;20213;-71
2021/12/15 08:35:15;;;;;;;11.83;9.97;;;5.50;1.00;;;;;;5093186;28;20197;-72
2021/12/15 08:37:42;;;;;;;15.60;10.23;;;5.50;1.00;;;;;;5093210;28;20205;-71
2021/12/15 08:40:10;;;;;;;13.87;8.80;;;6.00;1.00;;;;;;5079371;28;20231;-72
2021/12/15 08:42:38;;;;;;;13.70;8.13;;;6.40;1.00;;;;;;5092456;28;20233;-72
2021/12/15 08:45:06;;;;;;;12.40;9.00;;;6.50;1.00;;;;;;5089555;28;20258;-72
2021/12/15 08:47:35;;;;;;;13.07;8.80;;;6.40;1.00;;;;;;5091141;28;20210;-69
2021/12/15 08:50:04;;;;;;;11.10;8.60;;;6.10;1.00;;;;;;5091286;28;20213;-71
2021/12/15 08:52:31;;;;;;;10.03;7.83;;;6.20;1.00;;;;;;5092629;28;20255;-72
2021/12/15 08:54:58;;;;;;;12.67;7.73;;;6.20;1.00;;;;;;5092344;28;20216;-72
2021/12/15 08:57:25;;;;;;;12.13;9.23;;;6.50;1.00;;;;;;5091703;28;20205;-72
2021/12/15 08:59:52;;;;;;;10.80;7.13;;;6.50;1.00;;;;;;5091256;28;20209;-72
2021/12/15 09:02:19;;;;;;;12.60;8.97;;;6.50;1.00;;;;;;5092455;28;20201;-71
2021/12/15 09:04:48;;;;;;;13.57;12.20;;;6.50;1.00;;;;;;5092435;28;20214;-71
2021/12/15 09:07:15;;;;;;;11.00;8.47;;;7.00;1.00;;;;;;5092562;28;20653;-72
2021/12/15 09:09:42;;;;;;;11.27;7.77;;;7.10;1.00;;;;;;5092341;28;20210;-71
2021/12/15 09:12:10;;;;;;;16.07;7.67;;;7.50;1.00;;;;;;5086163;28;20210;-72
2021/12/15 09:14:37;;;;;;;9.10;7.10;;;7.70;1.00;;;;;;5081904;28;20262;-71
2021/12/15 09:17:06;;;;;;;10.27;7.40;;;7.80;1.00;;;;;;5090123;28;20259;-68
2021/12/15 09:19:34;;;;;;;13.03;7.40;;;8.80;1.00;;;;;;5092842;28;20288;-69
2021/12/15 09:22:04;;;;;;;10.50;7.37;;;8.30;1.00;;;;;;5076728;28;20681;-68
2021/12/15 09:24:31;;;;;;;13.67;7.93;;;8.30;1.00;;;;;;5080977;28;20295;-69
2021/12/15 09:26:58;;;;;;;10.97;7.93;;;8.60;1.00;;;;;;5084819;28;20210;-69
2021/12/15 09:29:26;;;;;;;13.20;8.03;;;9.40;1.00;;;;;;5092297;28;20201;-68
2021/12/15 09:31:54;;;;;;;15.67;7.30;;;9.50;1.00;;;;;;5091937;28;20225;-69
2021/12/15 09:34:21;;;;;;;12.47;8.30;;;11.30;1.00;;;;;;5092627;28;20216;-70
2021/12/15 09:36:50;;;;;;;9.90;7.70;;;11.70;1.00;;;;;;5091787;28;20205;-69
2021/12/15 09:39:22;;;;;;;9.53;7.63;;;11.40;1.00;;;;;;5090225;28;20258;-70
2021/12/15 09:41:51;;;;;;;11.97;10.00;;;9.20;1.00;;;;;;5090639;28;20278;-69
2021/12/15 09:44:22;;;;;;;13.17;8.87;;;9.50;1.00;;;;;;5091269;28;20708;-69
2021/12/15 10:03:33;;;;;;;9.45;7.88;;;17.60;99.90;;;;;;5090114;28;20258;-72
2021/12/15 10:06:08;;;;;;;10.55;8.68;;;17.80;99.90;;;;;;5091153;28;20753;-73
2021/12/15 10:19:39;;;;;;;10.60;9.20;;;16.20;99.90;;;;;;5089154;28;20571;-71
2021/12/15 10:22:12;;;;;;;12.75;9.98;;;15.90;99.90;;;;;;5091029;28;20256;-71
2021/12/15 10:24:48;;;;;;;12.32;9.15;;;16.60;99.90;;;;;;5090456;28;20236;-70
2021/12/15 10:27:31;;;;;;;15.57;10.77;;;17.50;99.90;;;;;;5090894;28;20201;-71
2021/12/15 10:30:01;;;;;;;13.57;11.05;;;17.90;99.90;;;;;;5090983;28;20205;-70
2021/12/15 10:32:30;;;;;;;13.20;9.98;;;18.10;99.90;;;;;;5077946;28;20581;-71
2021/12/15 10:35:04;;;;;;;12.98;9.18;;;16.90;99.90;;;;;;5090681;28;20250;-71
2021/12/15 10:37:31;;;;;;;13.60;9.30;;;16.20;99.90;;;;;;5091250;28;20213;-70
2021/12/15 10:40:14;;;;;;;13.75;9.88;;;16.50;99.90;;;;;;5090711;28;20626;-71
2021/12/15 10:42:43;;;;;;;11.80;9.48;;;15.90;99.90;;;;;;5090589;28;20630;-71
2021/12/15 10:45:13;;;;;;;15.07;9.63;;;12.50;99.90;;;;;;5090956;28;20205;-72
2021/12/15 10:47:42;;;;;;;16.33;10.53;;;10.50;1.00;;;;;;5090496;28;20217;-69
2021/12/15 10:50:16;;;;;;;12.43;9.73;;;9.20;1.00;;;;;;5090794;28;20722;-68
2021/12/15 10:52:55;;;;;;;21.40;9.20;;;8.80;1.00;;;;;;5089966;28;20202;-69
2021/12/15 10:55:29;;;;;;;11.67;8.43;;;8.70;1.00;;;;;;5090597;28;20209;-68
2021/12/15 10:57:58;;;;;;;13.20;10.67;;;8.70;1.00;;;;;;5090556;28;20205;-69
2021/12/15 11:00:25;;;;;;;15.73;11.47;;;8.50;1.00;;;;;;5090582;28;20210;-70
2021/12/15 11:03:03;;;;;;;17.70;11.57;;;8.60;1.00;;;;;;5090046;28;20648;-71
2021/12/15 11:05:30;;;;;;;15.47;10.30;;;8.60;1.00;;;;;;5090764;28;20657;-69
2021/12/15 11:07:59;;;;;;;17.23;10.70;;;8.60;1.00;;;;;;5090185;28;20205;-69
2021/12/15 11:10:30;;;;;;;11.97;9.80;;;8.50;1.00;;;;;;5078745;28;20210;-69
2021/12/15 11:13:00;;;;;;;13.63;9.47;;;8.50;1.00;;;;;;5079463;28;20244;-68
2021/12/15 11:15:30;;;;;;;14.50;10.33;;;8.70;1.00;;;;;;5079397;28;20278;-69
2021/12/15 11:18:00;;;;;;;12.73;11.27;;;8.90;1.00;;;;;;5089963;28;20209;-69
2021/12/15 11:20:29;;;;;;;17.97;9.40;;;8.90;1.00;;;;;;5092448;28;20205;-69
2021/12/15 11:23:01;;;;;;;16.00;10.83;;;8.90;1.00;;;;;;5083529;28;20234;-70
2021/12/15 11:25:44;;;;;;;14.80;10.33;;;8.90;1.00;;;;;;5087918;28;20205;-69
2021/12/15 11:28:20;;;;;;;13.03;10.23;;;9.10;1.00;;;;;;5093876;28;20214;-70
2021/12/15 11:30:51;;;;;;;14.00;10.03;;;9.20;1.00;;;;;;5083587;28;20201;-71
2021/12/15 11:33:21;;;;;;;18.43;10.80;;;9.30;1.00;;;;;;5078725;28;20205;-71
2021/12/15 11:35:53;;;;;;;16.93;11.13;;;9.40;1.00;;;;;;5078911;28;20256;-71
2021/12/15 11:38:22;;;;;;;16.17;10.47;;;9.50;1.00;;;;;;5078445;28;20209;-71
2021/12/15 11:41:01;;;;;;;12.10;9.77;;;9.70;1.00;;;;;;5085470;28;20213;-71
2021/12/15 11:43:33;;;;;;;12.17;9.37;;;9.80;1.00;;;;;;5083667;28;20240;-70
2021/12/15 11:46:02;;;;;;;13.03;9.70;;;9.80;1.00;;;;;;5083206;28;20558;-71
2021/12/15 11:48:32;;;;;;;16.10;9.20;;;9.80;1.00;;;;;;5094698;28;20210;-70
2021/12/15 11:51:02;;;;;;;12.50;9.00;;;9.90;1.00;;;;;;5088624;28;20209;-70
2021/12/15 11:53:35;;;;;;;17.13;9.73;;;10.00;1.00;;;;;;5094393;28;20569;-70
2021/12/15 11:56:17;;;;;;;12.30;8.53;;;10.20;1.00;;;;;;5094621;28;20206;-69
2021/12/15 11:58:47;;;;;;;14.23;9.77;;;10.10;1.00;;;;;;5093918;28;20262;-71
2021/12/15 12:01:38;;;;;;;11.90;10.40;;;10.00;1.00;;;;;;5093228;28;20209;-70
2021/12/15 12:04:15;;;;;;;15.87;9.80;;;10.00;1.00;;;;;;5091311;28;20716;-70
2021/12/15 12:06:43;;;;;;;14.33;9.30;;;10.20;1.00;;;;;;5078409;28;20201;-70
2021/12/15 12:09:10;;;;;;;11.00;9.33;;;10.30;1.00;;;;;;5082334;28;20210;-71
2021/12/15 12:11:40;;;;;;;12.33;8.83;;;10.50;1.00;;;;;;5081374;28;20214;-70
2021/12/15 12:14:18;;;;;;;16.40;10.03;;;10.60;1.00;;;;;;5091533;28;20232;-71
2021/12/15 12:16:46;;;;;;;15.23;10.50;;;10.60;1.00;;;;;;5085814;28;20216;-71
2021/12/15 12:19:13;;;;;;;12.10;9.80;;;10.70;1.00;;;;;;5089336;28;20730;-71
2021/12/15 12:21:41;;;;;;;14.47;9.90;;;10.70;1.00;;;;;;5085421;28;20218;-70
2021/12/15 12:24:11;;;;;;;15.83;10.17;;;10.70;1.00;;;;;;5084138;28;20228;-70
2021/12/15 12:26:39;;;;;;;19.40;10.43;;;10.70;1.00;;;;;;5091524;28;20594;-68
2021/12/15 12:29:08;;;;;;;14.00;10.60;;;10.70;1.00;;;;;;5091320;28;20255;-70
2021/12/15 12:31:35;;;;;;;27.40;12.17;;;10.70;1.00;;;;;;5083439;28;20214;-69
2021/12/15 12:34:03;;;;;;;19.60;13.17;;;10.70;1.00;;;;;;5086895;28;20632;-70
2021/12/15 12:36:32;;;;;;;26.23;12.30;;;10.60;1.00;;;;;;5087550;28;20206;-68
2021/12/15 12:39:03;;;;;;;19.20;13.77;;;10.50;1.00;;;;;;5085839;28;20898;-70
2021/12/15 12:41:33;;;;;;;18.23;12.17;;;10.50;1.00;;;;;;5084577;28;20222;-71
2021/12/15 12:44:02;;;;;;;15.13;13.50;;;10.60;1.00;;;;;;5087913;28;20233;-71
2021/12/15 12:46:37;;;;;;;19.40;12.63;;;10.70;1.00;;;;;;5084252;28;20213;-70
2021/12/15 13:00:43;;;;;;;12.27;9.80;;;11.00;1.00;;;;;;5010844;28;20684;-68
2021/12/15 13:03:16;;;;;;;10.97;9.47;;;11.00;1.00;;;;;;5085654;28;20206;-67
2021/12/15 13:05:46;;;;;;;10.73;9.20;;;11.00;1.00;;;;;;5090892;28;20309;-67
2021/12/15 13:08:16;;;;;;;11.97;9.67;;;11.00;1.00;;;;;;5083316;28;20213;-68
2021/12/15 13:11:00;;;;;;;13.37;9.60;;;11.00;1.00;;;;;;5090631;28;20202;-67
2021/12/15 13:13:30;;;;;;;12.40;9.33;;;11.00;1.00;;;;;;5091248;28;20632;-68
2021/12/15 13:16:00;;;;;;;19.03;11.90;;;11.00;1.00;;;;;;5090306;28;20209;-67
2021/12/15 13:18:42;;;;;;;15.30;10.97;;;11.00;1.00;;;;;;5081447;28;20215;-67
2021/12/15 13:21:11;;;;;;;14.03;11.07;;;11.00;1.00;;;;;;5080203;28;20206;-72
2021/12/15 13:23:44;;;;;;;13.20;11.43;;;11.10;1.00;;;;;;5091368;28;20244;-70
2021/12/15 13:29:28;;;;;;;22.40;14.63;;;11.10;1.00;;;;;;5081989;28;20267;-71
2021/12/15 13:32:01;;;;;;;15.73;14.13;;;11.20;1.00;;;;;;5086463;28;20209;-71
2021/12/15 13:34:43;;;;;;;18.87;13.37;;;11.20;1.00;;;;;;5086787;28;20209;-71
2021/12/15 13:37:11;;;;;;;16.80;14.53;;;11.20;1.00;;;;;;5088851;28;20210;-73
2021/12/15 13:39:44;;;;;;;17.27;13.73;;;11.20;1.00;;;;;;5091928;28;20205;-73
2021/12/15 13:42:15;;;;;;;16.97;13.63;;;11.20;1.00;;;;;;5091259;28;20217;-70
2021/12/15 13:44:44;;;;;;;20.63;16.47;;;11.30;1.00;;;;;;5090700;28;20229;-71
2021/12/15 13:47:18;;;;;;;27.50;16.87;;;11.20;1.00;;;;;;5082851;28;20247;-70
2021/12/15 13:49:48;;;;;;;20.40;14.97;;;11.10;1.00;;;;;;5083315;28;20255;-73
2021/12/15 13:52:22;;;;;;;25.10;16.70;;;11.10;1.00;;;;;;5081443;28;20214;-72
2021/12/15 13:55:25;;;;;;;18.27;13.87;;;11.10;1.00;;;;;;5078286;28;20201;-69
2021/12/15 13:58:17;;;;;;;18.10;14.27;;;11.10;1.00;;;;;;5090936;28;20574;-71
2021/12/15 14:00:50;;;;;;;15.83;13.87;;;11.20;1.00;;;;;;5086516;28;20665;-72
2021/12/15 14:03:26;;;;;;;21.30;14.83;;;11.10;1.00;;;;;;5086123;28;20262;-69
2021/12/15 14:05:58;;;;;;;19.87;13.47;;;11.10;1.00;;;;;;5091201;28;20229;-72
2021/12/15 14:08:32;;;;;;;17.43;13.07;;;11.00;1.00;;;;;;5084403;28;20262;-71
2021/12/15 14:11:16;;;;;;;23.60;13.57;;;10.80;1.00;;;;;;5082341;28;20205;-71
2021/12/15 14:13:50;;;;;;;26.97;16.23;;;10.70;1.00;;;;;;5090879;28;20218;-72
2021/12/15 14:16:48;;;;;;;26.97;14.37;;;10.80;1.00;;;;;;5091178;28;20618;-71
2021/12/15 14:19:22;;;;;;;18.97;12.40;;;10.90;1.00;;;;;;5091403;28;20761;-71
2021/12/15 14:21:51;;;;;;;13.13;11.13;;;10.90;1.00;;;;;;5090932;28;20205;-73